»·PEaware :: WAT169 KSNA-KLAS

WAT169 :: KSNA-KLAS

FLIGHT INFORMATION

Flight Status: Arrived
Operator:
Walker Air Transport
More flights by this operator :: More flights under this callsign
Pilot: Marty P. (27464)
Aircraft: BOEING 737-800
(B738)
More flights by this aircraft type
Origin: KSNA John Wayne-Orange Co
United States
Destination: KLAS McCarran Intl
United States
More flights between these airports :: More routes between these airports
Route: FINZZ3 MISEN KEPEC6
File this flight plan on PilotEdge
Remarks:
Altitude:
(Current/Filed)
27,000ft
Speed:
(Current/Filed)
480kts
Departed: 09-Jan-21 08:14 AM
Arrived: 09-Jan-21 08:56 AM
Distance/Time
Traveled:
197nm/0:42
Distance/Time
To Go:
Arrived

Flight Plot

Page will automatically refresh every two minutes.

Flight plan parsing failed; only flown route is shown


Map Options




Map Legend


Flown Route
Filed Route
Departure Airport
Arrival Airport
Navaid (VOR, NDB)
Fix

Horizontal Profiles

Position Reports

Time Latitude Longitude Heading Altitude Ground
Speed
09-Jan-21 07:42 33.675005 -117.865072 118 66ft 0kts
09-Jan-21 07:43 33.675005 -117.865072 118 66ft 0kts
09-Jan-21 07:44 33.675005 -117.865072 118 66ft 0kts
09-Jan-21 07:45 33.675005 -117.865072 118 66ft 0kts
09-Jan-21 07:46 33.675005 -117.865072 118 66ft 0kts
09-Jan-21 07:47 33.675005 -117.865072 118 66ft 0kts
09-Jan-21 07:48 33.675005 -117.865072 118 66ft 0kts
09-Jan-21 07:49 33.675005 -117.865072 118 66ft 0kts
09-Jan-21 07:50 33.675005 -117.865072 118 66ft 0kts
09-Jan-21 07:51 33.675005 -117.865072 118 66ft 0kts
09-Jan-21 07:52 33.675005 -117.865072 118 66ft 0kts
09-Jan-21 07:53 33.675005 -117.865072 118 66ft 0kts
09-Jan-21 07:54 33.675005 -117.865072 118 66ft 0kts
09-Jan-21 07:55 33.675005 -117.865072 118 66ft 0kts
09-Jan-21 07:56 33.675005 -117.865072 118 66ft 0kts
09-Jan-21 07:57 33.675005 -117.865072 118 66ft 0kts
09-Jan-21 07:58 33.675005 -117.865072 118 66ft 0kts
09-Jan-21 07:59 33.675005 -117.865072 118 66ft 0kts
09-Jan-21 08:00 33.675005 -117.865072 118 66ft 0kts
09-Jan-21 08:01 33.675005 -117.865072 118 66ft 0kts
09-Jan-21 08:02 33.675005 -117.865072 118 66ft 0kts
09-Jan-21 08:03 33.675005 -117.865072 118 66ft 0kts
09-Jan-21 08:04 33.675005 -117.865073 118 66ft 0kts
09-Jan-21 08:05 33.675107 -117.865302 118 66ft 0kts
09-Jan-21 08:06 33.675016 -117.865900 35 66ft 2kts
09-Jan-21 08:07 33.674921 -117.865965 27 66ft 0kts
09-Jan-21 08:08 33.674921 -117.865965 27 66ft 0kts
09-Jan-21 08:09 33.675332 -117.865690 29 66ft 9kts
09-Jan-21 08:10 33.679964 -117.862769 27 66ft 19kts
09-Jan-21 08:11 33.680687 -117.863160 298 66ft 3kts
09-Jan-21 08:12 33.680957 -117.865506 207 66ft 2kts
09-Jan-21 08:13 33.652225 -117.883889 207 1114ft 178kts
09-Jan-21 08:14 33.595331 -117.896555 187 3482ft 241kts
09-Jan-21 08:15 33.536430 -117.937817 228 6746ft 258kts
09-Jan-21 08:16 33.505893 -118.011583 280 8030ft 248kts
09-Jan-21 08:17 33.541122 -118.079331 321 11528ft 267kts
09-Jan-21 08:18 33.621777 -118.105247 5 14011ft 337kts
09-Jan-21 08:19 33.710527 -118.059515 20 17285ft 357kts
09-Jan-21 08:20 33.798530 -118.007719 18 21122ft 337kts
09-Jan-21 08:21 33.883098 -117.957517 22 23134ft 362kts
09-Jan-21 08:22 33.967601 -117.887549 28 25427ft 373kts
09-Jan-21 08:23 34.051718 -117.810476 32 27133ft 392kts
09-Jan-21 08:24 34.133882 -117.707438 42 27159ft 455kts
09-Jan-21 08:25 34.218017 -117.585852 43 27221ft 479kts
09-Jan-21 08:26 34.302355 -117.461109 43 27249ft 478kts
09-Jan-21 08:27 34.385780 -117.336331 43 27251ft 481kts
09-Jan-21 08:28 34.472087 -117.207086 44 27245ft 505kts
09-Jan-21 08:29 34.560884 -117.073929 43 27251ft 509kts
09-Jan-21 08:30 34.651910 -116.941342 42 27263ft 510kts
09-Jan-21 08:31 34.742538 -116.809072 42 27273ft 510kts
09-Jan-21 08:32 34.833669 -116.677611 38 27253ft 505kts
09-Jan-21 08:33 34.936246 -116.565716 30 26520ft 472kts
09-Jan-21 08:34 35.035371 -116.469199 30 24923ft 447kts
09-Jan-21 08:35 35.127202 -116.371771 36 24253ft 442kts
09-Jan-21 08:36 35.214919 -116.262808 37 24243ft 450kts
09-Jan-21 08:37 35.302623 -116.152930 37 23346ft 452kts
09-Jan-21 08:38 35.387154 -116.046451 37 20844ft 427kts
09-Jan-21 08:39 35.467002 -115.945469 37 18332ft 398kts
09-Jan-21 08:40 35.539924 -115.852881 37 15512ft 356kts
09-Jan-21 08:41 35.605692 -115.769237 38 12976ft 309kts
09-Jan-21 08:42 35.658265 -115.702063 36 13015ft 243kts
09-Jan-21 08:43 35.701454 -115.639226 66 12786ft 270kts
09-Jan-21 08:44 35.705512 -115.541396 81 10349ft 282kts
09-Jan-21 08:45 35.713420 -115.452544 69 8377ft 232kts
09-Jan-21 08:46 35.750102 -115.392265 42 7711ft 230kts
09-Jan-21 08:47 35.794481 -115.337469 37 7000ft 215kts
09-Jan-21 08:48 35.844382 -115.301392 21 6978ft 194kts
09-Jan-21 08:49 35.890171 -115.275711 22 6065ft 179kts
09-Jan-21 08:50 35.933006 -115.250959 28 5138ft 152kts
09-Jan-21 08:51 35.971066 -115.227352 23 4397ft 153kts
09-Jan-21 08:52 36.010118 -115.204639 23 3636ft 155kts
09-Jan-21 08:53 36.047868 -115.182353 19 2769ft 142kts
09-Jan-21 08:55 36.083707 -115.162015 22 2144ft 107kts
09-Jan-21 08:56 36.087571 -115.158417 90 2122ft 0kts
09-Jan-21 08:57 36.086512 -115.157793 157 2122ft 18kts
09-Jan-21 08:58 36.081432 -115.154877 155 2125ft 19kts
09-Jan-21 08:59 36.078765 -115.151688 91 2119ft 12kts
09-Jan-21 09:00 36.078550 -115.148054 97 2105ft 6kts
09-Jan-21 09:01 36.080134 -115.147807 64 2101ft 6kts
09-Jan-21 09:02 36.080315 -115.147306 66 2099ft 0kts

Navigation Log

Ident Type
Flight plan parsing failed, navigation log unavailable